Time;durP1;ratioP1;P1;durP2;ratioP2;P2;SDS_P1;SDS_P2;PMS_P1;PMS_P2;Temp;Humidity;BMP_temperature;BMP_pressure;BME280_temperature;BME280_humidity;BME280_pressure;Samples;Min_cycle;Max_cycle;Signal;HPM_P1;HPM_P2
2022/09/01 00:00:40;;;;;;;3.20;2.00;;;;;;;;;;5009717;28;90150;-69
2022/09/01 00:03:09;;;;;;;4.15;1.90;;;;;;;;;;5010521;28;89509;-69
2022/09/01 00:05:36;;;;;;;3.60;1.80;;;;;;;;;;5008410;28;90007;-69
2022/09/01 00:08:03;;;;;;;4.03;2.20;;;;;;;;;;5010055;28;90877;-69
2022/09/01 00:10:29;;;;;;;5.82;2.20;;;;;;;;;;5012533;28;89010;-69
2022/09/01 00:12:56;;;;;;;4.25;2.08;;;;;;;;;;5010064;28;90966;-69
2022/09/01 00:15:22;;;;;;;7.35;2.28;;;;;;;;;;5007277;28;88786;-69
2022/09/01 00:17:48;;;;;;;4.95;2.20;;;;;;;;;;5010021;28;89761;-69
2022/09/01 00:20:15;;;;;;;5.95;1.83;;;;;;;;;;5010582;28;90085;-69
2022/09/01 00:22:46;;;;;;;5.57;1.80;;;;;;;;;;4992821;28;89199;-69
2022/09/01 00:25:12;;;;;;;5.70;2.20;;;;;;;;;;5007681;28;89910;-69
2022/09/01 00:27:38;;;;;;;3.00;1.85;;;;;;;;;;5010210;28;89776;-69
2022/09/01 00:30:05;;;;;;;4.72;2.10;;;;;;;;;;5008589;28;89132;-69
2022/09/01 00:32:32;;;;;;;7.05;2.05;;;;;;;;;;5010506;28;89136;-69
2022/09/01 00:34:58;;;;;;;4.75;1.90;;;;;;;;;;5009425;28;89229;-69
2022/09/01 00:37:24;;;;;;;4.30;2.00;;;;;;;;;;5009112;28;89554;-69
2022/09/01 00:39:51;;;;;;;4.88;1.95;;;;;;;;;;5009738;28;90273;-69
2022/09/01 00:42:18;;;;;;;4.38;1.90;;;;;;;;;;5009154;28;89149;-69
2022/09/01 00:44:44;;;;;;;2.95;2.00;;;;;;;;;;5007673;28;90122;-69
2022/09/01 00:47:12;;;;;;;4.97;2.03;;;;;;;;;;5008375;28;90025;-69
2022/09/01 00:49:41;;;;;;;3.42;2.05;;;;;;;;;;5008798;28;88219;-69
2022/09/01 00:52:29;;;;;;;4.70;2.30;;;;;;;;;;5000112;28;89934;-70
2022/09/01 00:54:57;;;;;;;3.30;1.83;;;;;;;;;;4998005;28;89779;-71
2022/09/01 00:57:23;;;;;;;13.70;2.13;;;;;;;;;;5009358;28;89349;-69
2022/09/01 01:00:06;;;;;;;3.63;2.00;;;;;;;;;;5009049;28;90328;-69
2022/09/01 01:02:32;;;;;;;5.88;2.33;;;;;;;;;;5006446;28;90357;-68
2022/09/01 01:04:59;;;;;;;6.18;2.25;;;;;;;;;;4997155;28;90983;-69
2022/09/01 01:07:27;;;;;;;5.60;2.03;;;;;;;;;;5010068;28;90334;-69
2022/09/01 01:09:53;;;;;;;3.80;2.00;;;;;;;;;;5008967;28;88474;-69
2022/09/01 01:12:20;;;;;;;7.30;2.42;;;;;;;;;;5007756;28;90286;-69
2022/09/01 01:14:51;;;;;;;2.55;1.75;;;;;;;;;;5007354;28;89770;-70
2022/09/01 01:17:21;;;;;;;8.95;2.25;;;;;;;;;;5011990;28;89136;-68
2022/09/01 01:23:04;;;;;;;5.82;2.15;;;;;;;;;;5008957;28;88976;-71
2022/09/01 01:25:41;;;;;;;4.40;2.22;;;;;;;;;;5008960;28;90136;-71
2022/09/01 01:28:10;;;;;;;5.75;2.40;;;;;;;;;;5007784;28;90796;-71
2022/09/01 01:30:38;;;;;;;5.40;2.50;;;;;;;;;;5009485;28;89119;-71
2022/09/01 01:33:05;;;;;;;5.03;2.28;;;;;;;;;;5008656;28;91063;-70
2022/09/01 01:35:32;;;;;;;3.63;2.40;;;;;;;;;;5008178;28;90012;-70
2022/09/01 01:38:00;;;;;;;7.35;2.22;;;;;;;;;;5011882;28;89215;-70
2022/09/01 01:40:28;;;;;;;3.33;2.30;;;;;;;;;;5009054;28;89887;-70
2022/09/01 01:42:56;;;;;;;3.97;2.20;;;;;;;;;;5007894;28;89454;-70
2022/09/01 01:45:23;;;;;;;4.55;2.40;;;;;;;;;;5008870;28;90485;-70
2022/09/01 01:47:53;;;;;;;7.05;2.40;;;;;;;;;;5008143;28;89715;-70
2022/09/01 01:50:22;;;;;;;6.07;2.58;;;;;;;;;;4991204;28;90028;-70
2022/09/01 01:52:48;;;;;;;5.90;2.58;;;;;;;;;;5008328;28;89875;-70
2022/09/01 01:55:27;;;;;;;4.55;2.40;;;;;;;;;;5007932;28;90127;-70
2022/09/01 01:57:55;;;;;;;4.57;2.50;;;;;;;;;;5006520;28;89932;-70
2022/09/01 02:00:23;;;;;;;7.78;2.78;;;;;;;;;;5011986;28;89865;-70
2022/09/01 02:02:56;;;;;;;4.50;2.40;;;;;;;;;;4990362;28;88814;-72
2022/09/01 02:05:32;;;;;;;4.35;2.63;;;;;;;;;;5008938;28;89788;-70
2022/09/01 02:08:02;;;;;;;5.70;2.60;;;;;;;;;;5008522;28;90065;-70
2022/09/01 02:10:40;;;;;;;3.72;2.38;;;;;;;;;;5009086;28;89158;-70
2022/09/01 02:13:07;;;;;;;8.63;2.30;;;;;;;;;;5007049;28;88509;-70
2022/09/01 02:15:42;;;;;;;6.53;2.60;;;;;;;;;;5008020;28;90111;-70
2022/09/01 02:18:10;;;;;;;3.80;2.40;;;;;;;;;;5007592;28;88969;-70
2022/09/01 02:20:36;;;;;;;8.18;2.40;;;;;;;;;;5008522;28;90251;-69
2022/09/01 02:23:09;;;;;;;5.28;2.95;;;;;;;;;;5010250;28;90119;-69
2022/09/01 02:25:37;;;;;;;5.50;2.47;;;;;;;;;;5008235;28;89697;-69
2022/09/01 02:28:23;;;;;;;14.55;3.17;;;;;;;;;;5008092;28;92339;-69
2022/09/01 02:30:53;;;;;;;4.40;2.60;;;;;;;;;;5008111;28;89081;-69
2022/09/01 02:33:21;;;;;;;3.97;2.60;;;;;;;;;;5007632;28;89780;-69
2022/09/01 02:35:48;;;;;;;11.80;2.45;;;;;;;;;;5008255;28;88872;-69
2022/09/01 02:38:16;;;;;;;5.60;2.67;;;;;;;;;;5008544;28;89082;-70
2022/09/01 02:40:45;;;;;;;6.45;2.85;;;;;;;;;;5008151;28;88741;-70
2022/09/01 02:43:18;;;;;;;5.78;2.85;;;;;;;;;;5007129;28;90812;-70
2022/09/01 02:45:54;;;;;;;6.47;2.90;;;;;;;;;;5011346;28;88836;-69
2022/09/01 02:48:27;;;;;;;4.55;2.72;;;;;;;;;;5008023;28;90170;-69
2022/09/01 02:50:56;;;;;;;11.38;2.85;;;;;;;;;;5007600;28;89048;-69
2022/09/01 02:53:22;;;;;;;4.97;2.55;;;;;;;;;;5007296;28;89939;-69
2022/09/01 02:55:50;;;;;;;5.75;2.70;;;;;;;;;;5007208;28;90405;-69
2022/09/01 02:58:17;;;;;;;6.72;2.70;;;;;;;;;;5006074;28;88925;-69
2022/09/01 03:00:45;;;;;;;4.00;2.60;;;;;;;;;;5007269;28;89826;-69
2022/09/01 03:03:12;;;;;;;5.18;2.58;;;;;;;;;;5007413;28;90079;-69
2022/09/01 03:05:38;;;;;;;12.00;3.15;;;;;;;;;;5007850;28;88908;-69
2022/09/01 03:08:06;;;;;;;7.28;3.00;;;;;;;;;;5009808;28;89890;-69
2022/09/01 03:10:35;;;;;;;6.07;2.70;;;;;;;;;;5005217;28;89581;-69
2022/09/01 03:13:02;;;;;;;14.57;3.08;;;;;;;;;;5007347;28;89654;-69
2022/09/01 03:15:29;;;;;;;4.78;2.58;;;;;;;;;;5007937;28;90210;-69
2022/09/01 03:17:56;;;;;;;5.97;3.20;;;;;;;;;;5007436;28;89084;-69
2022/09/01 03:20:23;;;;;;;4.25;2.80;;;;;;;;;;5006980;28;89009;-69
2022/09/01 03:22:50;;;;;;;6.43;2.90;;;;;;;;;;5007256;28;89978;-69
2022/09/01 03:25:17;;;;;;;4.50;2.75;;;;;;;;;;5007843;28;88151;-69
2022/09/01 03:27:44;;;;;;;6.38;2.83;;;;;;;;;;5010952;28;89243;-69
2022/09/01 03:30:11;;;;;;;7.07;3.17;;;;;;;;;;5013362;28;90538;-69
2022/09/01 03:32:37;;;;;;;5.30;3.10;;;;;;;;;;5010825;28;89719;-69
2022/09/01 03:35:04;;;;;;;3.97;2.60;;;;;;;;;;5010667;28;89982;-69
2022/09/01 03:37:32;;;;;;;5.30;2.90;;;;;;;;;;5008037;28;88185;-69
2022/09/01 03:39:58;;;;;;;5.32;3.00;;;;;;;;;;5010462;28;89683;-69
2022/09/01 03:42:28;;;;;;;6.72;2.80;;;;;;;;;;5010942;28;90111;-70
2022/09/01 03:44:55;;;;;;;6.80;2.97;;;;;;;;;;5010478;28;89083;-69
2022/09/01 03:47:23;;;;;;;5.40;2.92;;;;;;;;;;5010814;28;89794;-69
2022/09/01 03:49:49;;;;;;;6.28;3.13;;;;;;;;;;5013656;28;89168;-69
2022/09/01 03:52:16;;;;;;;6.93;3.05;;;;;;;;;;5010782;28;89351;-69
2022/09/01 03:54:44;;;;;;;4.97;2.95;;;;;;;;;;5010632;28;89956;-69
2022/09/01 03:57:11;;;;;;;8.70;3.50;;;;;;;;;;5009730;28;89406;-69
2022/09/01 03:59:42;;;;;;;5.43;3.03;;;;;;;;;;5010567;28;90779;-69
2022/09/01 04:02:09;;;;;;;7.43;3.10;;;;;;;;;;5010476;28;89939;-69
2022/09/01 04:04:36;;;;;;;7.10;3.35;;;;;;;;;;5011014;28;89085;-69
2022/09/01 04:07:02;;;;;;;6.38;3.50;;;;;;;;;;5008823;28;89704;-69
2022/09/01 04:09:28;;;;;;;5.82;3.03;;;;;;;;;;5010835;28;90256;-69
2022/09/01 04:11:55;;;;;;;7.78;3.25;;;;;;;;;;5013278;28;89073;-69
2022/09/01 04:14:23;;;;;;;6.07;3.30;;;;;;;;;;5010700;28;89295;-69
2022/09/01 04:19:38;;;;;;;11.85;3.58;;;;;;;;;;4990423;28;90066;-69
2022/09/01 04:22:06;;;;;;;5.53;3.20;;;;;;;;;;4988799;28;90844;-69
2022/09/01 04:24:33;;;;;;;8.10;3.10;;;;;;;;;;4990621;28;88631;-69
2022/09/01 04:27:01;;;;;;;7.53;3.33;;;;;;;;;;4990620;28;89786;-69
2022/09/01 04:29:28;;;;;;;10.88;3.53;;;;;;;;;;5010077;28;90063;-69
2022/09/01 04:32:01;;;;;;;8.48;3.58;;;;;;;;;;5010007;28;89250;-69
2022/09/01 04:34:35;;;;;;;7.57;3.60;;;;;;;;;;5013463;28;88420;-69
2022/09/01 04:37:06;;;;;;;9.10;3.80;;;;;;;;;;5007441;28;89066;-69
2022/09/01 18:39:43;;;;;;;3.75;1.50;;;;;;;;;;5070870;27;86905;-72
2022/09/01 18:42:21;;;;;;;4.82;1.42;;;;;;;;;;5066770;27;87049;-72
2022/09/01 18:44:57;;;;;;;2.35;1.30;;;;;;;;;;5065516;27;88166;-72
2022/09/01 18:47:28;;;;;;;3.97;1.70;;;;;;;;;;5065703;27;88781;-73
2022/09/01 18:50:01;;;;;;;3.83;1.30;;;;;;;;;;5059648;27;89086;-72
2022/09/01 18:52:33;;;;;;;3.60;1.40;;;;;;;;;;5068278;27;88406;-73
2022/09/01 18:55:19;;;;;;;6.30;1.27;;;;;;;;;;5061711;27;88344;-73
2022/09/01 18:57:49;;;;;;;5.70;1.70;;;;;;;;;;5052349;27;89187;-73
2022/09/01 19:00:17;;;;;;;7.00;1.48;;;;;;;;;;5050847;27;88254;-73
2022/09/01 19:02:44;;;;;;;4.38;1.42;;;;;;;;;;5060885;27;89000;-72
2022/09/01 19:05:17;;;;;;;8.10;1.88;;;;;;;;;;5067917;27;88166;-72
2022/09/01 19:07:49;;;;;;;4.05;1.67;;;;;;;;;;5063381;27;88965;-72
2022/09/01 19:10:25;;;;;;;8.55;1.92;;;;;;;;;;5056711;27;88880;-73
2022/09/01 19:12:57;;;;;;;5.25;1.75;;;;;;;;;;5068104;27;88500;-72
2022/09/01 19:15:42;;;;;;;10.25;1.70;;;;;;;;;;5067524;27;88331;-73
2022/09/01 19:18:21;;;;;;;6.30;1.80;;;;;;;;;;5055262;27;89086;-73
2022/09/01 19:20:50;;;;;;;4.60;1.73;;;;;;;;;;5068275;27;87939;-73
2022/09/01 19:23:24;;;;;;;8.98;1.63;;;;;;;;;;5070863;27;88224;-73
2022/09/01 19:25:52;;;;;;;8.23;2.00;;;;;;;;;;5059541;27;88662;-72
2022/09/01 19:28:25;;;;;;;4.88;1.98;;;;;;;;;;5057547;27;88939;-73
2022/09/01 19:31:11;;;;;;;4.00;1.90;;;;;;;;;;5055633;27;89012;-72
2022/09/01 19:33:40;;;;;;;9.18;2.30;;;;;;;;;;5062084;27;88411;-73
2022/09/01 19:36:09;;;;;;;16.08;2.13;;;;;;;;;;5054441;27;88346;-73
2022/09/01 19:38:36;;;;;;;11.40;2.42;;;;;;;;;;5053044;27;88699;-74
2022/09/01 19:41:17;;;;;;;5.78;2.10;;;;;;;;;;5059061;27;88766;-73
2022/09/01 19:43:43;;;;;;;5.45;2.03;;;;;;;;;;5063870;27;88268;-73
2022/09/01 19:46:16;;;;;;;8.15;2.42;;;;;;;;;;5063005;27;89415;-73
2022/09/01 19:48:49;;;;;;;9.23;2.20;;;;;;;;;;5060260;27;88468;-73
2022/09/01 19:51:23;;;;;;;9.10;2.40;;;;;;;;;;5044692;27;89150;-73
2022/09/01 19:53:54;;;;;;;7.60;2.50;;;;;;;;;;5062234;27;88143;-73
2022/09/01 19:56:23;;;;;;;7.75;2.35;;;;;;;;;;5036406;27;88690;-73
2022/09/01 19:59:07;;;;;;;10.73;2.60;;;;;;;;;;5056670;27;91074;-72
2022/09/01 20:01:39;;;;;;;9.27;2.23;;;;;;;;;;5042191;27;88280;-73
2022/09/01 20:04:25;;;;;;;9.57;2.35;;;;;;;;;;5053570;27;88557;-73
2022/09/01 20:06:56;;;;;;;5.07;2.03;;;;;;;;;;5053103;27;88861;-72
2022/09/01 20:09:27;;;;;;;7.68;1.85;;;;;;;;;;5040333;27;88680;-72
2022/09/01 20:12:12;;;;;;;7.40;2.40;;;;;;;;;;5044171;27;89389;-77
2022/09/01 20:14:53;;;;;;;5.80;1.70;;;;;;;;;;5050543;27;88238;-72
2022/09/01 20:17:29;;;;;;;8.88;2.20;;;;;;;;;;5053852;27;88383;-72
2022/09/01 20:19:59;;;;;;;9.13;2.30;;;;;;;;;;5037644;27;88936;-75
2022/09/01 20:22:34;;;;;;;12.02;2.38;;;;;;;;;;5044647;27;87631;-72
2022/09/01 20:25:07;;;;;;;6.72;1.98;;;;;;;;;;5054066;27;88433;-72
2022/09/01 20:27:37;;;;;;;3.47;1.77;;;;;;;;;;5217018;22;89332;-72
2022/09/01 20:30:08;;;;;;;8.77;2.15;;;;;;;;;;5046330;27;88408;-73
2022/09/01 20:32:52;;;;;;;4.83;2.03;;;;;;;;;;5150961;22;88297;-73
2022/09/01 20:35:22;;;;;;;5.82;1.92;;;;;;;;;;5013556;28;88309;-73
2022/09/01 20:37:50;;;;;;;4.75;1.75;;;;;;;;;;5013537;28;88679;-72
2022/09/01 20:40:25;;;;;;;10.65;2.33;;;;;;;;;;5012090;28;89561;-72
2022/09/01 20:43:17;;;;;;;5.30;1.70;;;;;;;;;;4993151;28;88204;-73
2022/09/01 20:45:44;;;;;;;3.97;1.75;;;;;;;;;;4994050;28;88380;-73
2022/09/01 20:48:13;;;;;;;6.07;1.83;;;;;;;;;;4993707;28;89265;-73
2022/09/01 20:50:45;;;;;;;6.03;1.75;;;;;;;;;;4993631;28;88369;-72
2022/09/01 20:53:21;;;;;;;8.27;1.80;;;;;;;;;;4992601;28;88602;-73
2022/09/01 20:56:00;;;;;;;6.57;1.80;;;;;;;;;;4995888;28;87557;-72
2022/09/01 20:58:30;;;;;;;10.93;1.90;;;;;;;;;;4993233;28;87383;-73
2022/09/01 21:01:01;;;;;;;4.67;1.80;;;;;;;;;;4992432;28;89137;-73
2022/09/01 21:03:37;;;;;;;3.25;1.92;;;;;;;;;;4993778;28;88401;-73
2022/09/01 21:06:07;;;;;;;2.75;1.80;;;;;;;;;;5010343;28;88433;-72
2022/09/01 21:08:40;;;;;;;7.22;2.10;;;;;;;;;;5012133;28;89092;-75
2022/09/01 21:11:10;;;;;;;4.38;1.67;;;;;;;;;;5012412;28;88129;-72
2022/09/01 21:13:39;;;;;;;4.20;1.73;;;;;;;;;;5013150;28;88734;-72
2022/09/01 21:16:06;;;;;;;4.30;1.92;;;;;;;;;;5014691;28;88880;-73
2022/09/01 21:18:45;;;;;;;3.47;1.67;;;;;;;;;;5013409;28;88355;-73
2022/09/01 21:21:12;;;;;;;5.68;2.08;;;;;;;;;;5013737;28;88874;-73
2022/09/01 21:23:38;;;;;;;4.03;1.70;;;;;;;;;;5012146;28;88124;-73
2022/09/01 21:26:04;;;;;;;5.18;1.88;;;;;;;;;;5013043;28;88668;-72
2022/09/01 21:28:32;;;;;;;9.48;1.63;;;;;;;;;;5011554;28;88949;-73
2022/09/01 21:30:58;;;;;;;6.30;1.85;;;;;;;;;;5012530;28;87500;-73
2022/09/01 21:33:27;;;;;;;5.63;1.70;;;;;;;;;;5011550;28;89368;-72
2022/09/01 21:35:53;;;;;;;4.30;1.80;;;;;;;;;;5012958;28;88978;-73
2022/09/01 21:38:20;;;;;;;3.53;1.52;;;;;;;;;;5014024;28;88553;-73
2022/09/01 21:40:47;;;;;;;5.55;1.67;;;;;;;;;;5011442;28;88943;-73
2022/09/01 21:43:17;;;;;;;3.88;1.65;;;;;;;;;;5013049;28;87346;-72
2022/09/01 21:45:43;;;;;;;3.80;1.95;;;;;;;;;;5013285;28;87697;-72
2022/09/01 21:48:10;;;;;;;3.20;1.88;;;;;;;;;;5010539;28;88490;-72
2022/09/01 21:50:38;;;;;;;2.75;1.70;;;;;;;;;;5012624;28;88271;-73
2022/09/01 21:53:05;;;;;;;5.20;1.90;;;;;;;;;;5012518;28;87470;-72
2022/09/01 21:55:32;;;;;;;8.60;1.77;;;;;;;;;;5008729;28;88937;-72
2022/09/01 21:57:58;;;;;;;2.25;1.45;;;;;;;;;;5011671;28;88390;-72
2022/09/01 22:00:26;;;;;;;3.63;1.70;;;;;;;;;;5015488;28;88513;-72
2022/09/01 22:02:52;;;;;;;6.20;2.00;;;;;;;;;;5012548;28;88514;-73
2022/09/01 22:05:19;;;;;;;7.50;1.80;;;;;;;;;;5011554;28;88416;-72
2022/09/01 22:07:46;;;;;;;4.47;1.80;;;;;;;;;;5011487;28;89040;-72
2022/09/01 22:10:14;;;;;;;5.50;1.52;;;;;;;;;;5012054;28;88371;-73
2022/09/01 22:12:41;;;;;;;2.47;1.50;;;;;;;;;;5012801;28;88615;-73
2022/09/01 22:15:09;;;;;;;2.78;1.58;;;;;;;;;;5011073;28;89140;-72
2022/09/01 22:17:35;;;;;;;4.05;1.40;;;;;;;;;;5012066;28;88285;-72
2022/09/01 22:20:04;;;;;;;2.35;1.52;;;;;;;;;;5012342;28;88411;-72
2022/09/01 22:22:31;;;;;;;7.97;2.20;;;;;;;;;;5015632;28;89365;-72
2022/09/01 22:24:57;;;;;;;3.97;1.60;;;;;;;;;;5011011;28;88778;-73
2022/09/01 22:27:23;;;;;;;3.33;1.33;;;;;;;;;;5011559;28;89157;-75
2022/09/01 22:29:51;;;;;;;2.95;1.50;;;;;;;;;;5011114;28;87947;-72
2022/09/01 22:32:17;;;;;;;3.00;1.55;;;;;;;;;;5011950;28;88572;-72
2022/09/01 22:34:44;;;;;;;2.63;1.33;;;;;;;;;;5012642;28;88101;-72
2022/09/01 22:37:11;;;;;;;4.32;1.30;;;;;;;;;;5011794;28;88199;-72
2022/09/01 22:39:37;;;;;;;3.63;1.42;;;;;;;;;;5012005;28;88844;-73
2022/09/01 22:42:03;;;;;;;4.57;1.60;;;;;;;;;;5011296;28;89166;-72
2022/09/01 22:44:30;;;;;;;2.92;1.52;;;;;;;;;;5015009;28;88384;-72
2022/09/01 22:46:56;;;;;;;6.95;1.23;;;;;;;;;;5011827;28;89231;-73
2022/09/01 22:49:23;;;;;;;5.53;1.55;;;;;;;;;;5011840;28;88012;-72
2022/09/01 22:51:49;;;;;;;3.30;1.50;;;;;;;;;;5009175;28;88896;-72
2022/09/01 22:54:15;;;;;;;1.45;1.15;;;;;;;;;;5010814;28;89020;-73
2022/09/01 22:56:42;;;;;;;7.93;1.83;;;;;;;;;;5011483;28;89110;-72
2022/09/01 22:59:11;;;;;;;5.25;1.30;;;;;;;;;;5009924;28;89999;-74
2022/09/01 23:01:40;;;;;;;1.83;1.27;;;;;;;;;;5008438;28;88757;-73
2022/09/01 23:04:09;;;;;;;4.97;1.45;;;;;;;;;;5012992;28;90556;-73
2022/09/01 23:06:37;;;;;;;3.60;1.40;;;;;;;;;;5009739;28;89367;-73
2022/09/01 23:09:06;;;;;;;3.00;1.27;;;;;;;;;;5009493;28;90006;-72
2022/09/01 23:11:32;;;;;;;6.18;1.50;;;;;;;;;;5010915;28;89897;-72
2022/09/01 23:13:59;;;;;;;3.40;1.60;;;;;;;;;;5010517;28;88862;-72
2022/09/01 23:16:26;;;;;;;4.00;1.30;;;;;;;;;;5010894;28;89760;-72
2022/09/01 23:18:52;;;;;;;2.33;1.42;;;;;;;;;;5007391;28;89479;-72
2022/09/01 23:21:20;;;;;;;5.90;1.40;;;;;;;;;;5010760;28;88680;-72
2022/09/01 23:23:47;;;;;;;1.77;1.10;;;;;;;;;;5010109;28;89613;-72
2022/09/01 23:26:20;;;;;;;3.25;1.42;;;;;;;;;;5016149;28;90887;-72
2022/09/01 23:28:46;;;;;;;2.75;1.33;;;;;;;;;;5012289;28;90438;-72
2022/09/01 23:31:15;;;;;;;2.50;1.30;;;;;;;;;;5014656;28;90213;-73
2022/09/01 23:33:42;;;;;;;7.50;1.60;;;;;;;;;;5014388;28;89618;-72
2022/09/01 23:36:09;;;;;;;2.97;1.20;;;;;;;;;;5013780;28;89825;-72
2022/09/01 23:38:35;;;;;;;9.45;1.40;;;;;;;;;;5011619;28;90039;-72
2022/09/01 23:41:10;;;;;;;3.60;1.35;;;;;;;;;;5013878;28;88604;-72
2022/09/01 23:43:36;;;;;;;2.03;1.27;;;;;;;;;;5015016;28;89830;-72
2022/09/01 23:46:03;;;;;;;5.00;1.42;;;;;;;;;;5013644;28;90364;-72
2022/09/01 23:48:30;;;;;;;2.70;1.30;;;;;;;;;;5015152;28;88243;-72
2022/09/01 23:50:57;;;;;;;2.50;1.23;;;;;;;;;;5012869;28;91093;-73
2022/09/01 23:53:26;;;;;;;3.17;1.25;;;;;;;;;;5013280;28;89062;-72
2022/09/01 23:55:54;;;;;;;2.97;1.50;;;;;;;;;;5013745;28;89672;-72
2022/09/01 23:58:21;;;;;;;3.00;1.20;;;;;;;;;;5012290;28;89660;-73
